Terminal Aerodrome Forecast
Issued by NWS Chicago, IL

Home | Current Version | Previous Version | Text Only | Print | Product List | Glossary Off
Versions: 1 2 3 4 5 6 7 8 9 10 11 12 13 14 15 16 17 18 19 20 21 22

456
FTUS43 KLOT 222336
TAFRFD
TAF
KRFD 222336Z 2300/2324 01004KT P6SM BKN030
     FM230500 00000KT 4SM BR SKC
     FM230800 00000KT 1 1/2SM BR BCFG SCT003
      TEMPO 2308/2312 3/4SM BR MIFG VV002
     FM231400 VRB03KT P6SM SCT300=

USA.gov is the U.S. government's official web portal to all federal, state and local government web resources and services.